Air Navigation Services of Czech Republic
Airport: LKNA Updated:  28.10.2020 05:59:26  UTC
 METAR LKNA 28.10. 06:00 ...
METAR LKNA 280600Z 36002KT 0900 R30/2000N FG NSC 02/02 Q1014 NOSIG RMK AMB AMB=
 TAF LKNA 28.10. 05:00 COR
TAF COR LKNA 280500Z 2806/2906 27006KT 2000 BR NSC      TEMPO 2806/2808 0300 FG VV002      TEMPO 2808/2818 19008KT      BECMG 2809/2811 CAVOK      TEMPO 2811/2818 9999 BKN030      PROB30 TEMPO 2900/2906 3000 BR SCT004=
 WARNING LKNA 28.10. 04:27 ...
LKNA AD WRNG 2 VALID 280430/280700 VIS BLW 800M AND BASE BLW 200FT OBS AND FCST=